Terminal Aerodrome Forecast
Issued by NWS

Home | Current Version | Previous Version | Text Only | Print | Product List | Glossary On
Versions: 1 2 3 4 5 6 7 8 9 10 11 12 13 14 15 16
576
FTUS41 KPBZ 270524
TAFFKL
TAF
KFKL 270524Z 2706/2806 23006KT P6SM SCT250
     FM271600 23010G16KT P6SM SKC
     FM280000 18006KT P6SM FEW070
      AMD LTD TO CLD VIS AND WIND=

USA.gov is the U.S. government's official web portal to all federal, state and local government web resources and services.